sensor_id;sensor_type;location;lat;lon;timestamp;P1;durP1;ratioP1;P2;durP2;ratioP2
42586;SDS011;28216;53.362;-6.288;2022-08-26T00:01:22;6.38;;;1.90;;
42586;SDS011;28216;53.362;-6.288;2022-08-26T00:03:48;7.53;;;2.00;;
42586;SDS011;28216;53.362;-6.288;2022-08-26T00:06:13;7.43;;;1.80;;
42586;SDS011;28216;53.362;-6.288;2022-08-26T00:08:39;7.22;;;1.90;;
42586;SDS011;28216;53.362;-6.288;2022-08-26T00:11:06;5.28;;;1.70;;
42586;SDS011;28216;53.362;-6.288;2022-08-26T00:13:32;3.85;;;1.70;;
42586;SDS011;28216;53.362;-6.288;2022-08-26T00:15:59;4.82;;;1.50;;
42586;SDS011;28216;53.362;-6.288;2022-08-26T00:18:25;6.93;;;1.80;;
42586;SDS011;28216;53.362;-6.288;2022-08-26T00:20:51;5.82;;;1.70;;
42586;SDS011;28216;53.362;-6.288;2022-08-26T00:23:17;5.22;;;1.80;;
42586;SDS011;28216;53.362;-6.288;2022-08-26T00:25:43;7.38;;;2.00;;
42586;SDS011;28216;53.362;-6.288;2022-08-26T00:28:09;6.07;;;1.90;;
42586;SDS011;28216;53.362;-6.288;2022-08-26T00:30:34;5.60;;;2.00;;
42586;SDS011;28216;53.362;-6.288;2022-08-26T00:33:00;6.28;;;2.00;;
42586;SDS011;28216;53.362;-6.288;2022-08-26T00:35:26;8.60;;;1.95;;
42586;SDS011;28216;53.362;-6.288;2022-08-26T00:37:53;8.52;;;2.10;;
42586;SDS011;28216;53.362;-6.288;2022-08-26T00:40:22;5.43;;;1.80;;
42586;SDS011;28216;53.362;-6.288;2022-08-26T00:42:51;5.38;;;1.88;;
42586;SDS011;28216;53.362;-6.288;2022-08-26T00:45:16;5.72;;;1.80;;
42586;SDS011;28216;53.362;-6.288;2022-08-26T00:47:43;5.78;;;1.75;;
42586;SDS011;28216;53.362;-6.288;2022-08-26T00:50:19;4.85;;;1.67;;
42586;SDS011;28216;53.362;-6.288;2022-08-26T00:52:48;8.50;;;1.80;;
42586;SDS011;28216;53.362;-6.288;2022-08-26T00:55:17;5.18;;;1.70;;
42586;SDS011;28216;53.362;-6.288;2022-08-26T00:57:46;5.43;;;1.60;;
42586;SDS011;28216;53.362;-6.288;2022-08-26T01:00:15;9.50;;;1.95;;
42586;SDS011;28216;53.362;-6.288;2022-08-26T01:02:44;3.83;;;1.60;;
42586;SDS011;28216;53.362;-6.288;2022-08-26T01:05:11;4.28;;;1.40;;
42586;SDS011;28216;53.362;-6.288;2022-08-26T01:07:37;5.22;;;1.50;;
42586;SDS011;28216;53.362;-6.288;2022-08-26T01:10:05;3.10;;;1.40;;
42586;SDS011;28216;53.362;-6.288;2022-08-26T01:12:34;5.32;;;1.80;;
42586;SDS011;28216;53.362;-6.288;2022-08-26T01:15:10;8.90;;;1.50;;
42586;SDS011;28216;53.362;-6.288;2022-08-26T01:17:39;3.72;;;1.40;;
42586;SDS011;28216;53.362;-6.288;2022-08-26T01:20:28;6.18;;;1.65;;
42586;SDS011;28216;53.362;-6.288;2022-08-26T01:23:00;5.07;;;1.60;;
42586;SDS011;28216;53.362;-6.288;2022-08-26T01:25:29;4.45;;;1.40;;
42586;SDS011;28216;53.362;-6.288;2022-08-26T01:27:57;6.60;;;1.63;;
42586;SDS011;28216;53.362;-6.288;2022-08-26T01:30:26;5.88;;;1.40;;
42586;SDS011;28216;53.362;-6.288;2022-08-26T01:32:56;6.65;;;1.77;;
42586;SDS011;28216;53.362;-6.288;2022-08-26T01:35:25;3.53;;;1.70;;
42586;SDS011;28216;53.362;-6.288;2022-08-26T01:37:52;3.00;;;1.50;;
42586;SDS011;28216;53.362;-6.288;2022-08-26T01:40:22;5.85;;;1.63;;
42586;SDS011;28216;53.362;-6.288;2022-08-26T01:42:50;5.93;;;1.50;;
42586;SDS011;28216;53.362;-6.288;2022-08-26T01:45:18;3.55;;;1.50;;
42586;SDS011;28216;53.362;-6.288;2022-08-26T01:47:49;5.30;;;1.67;;
42586;SDS011;28216;53.362;-6.288;2022-08-26T01:50:18;3.08;;;1.40;;
42586;SDS011;28216;53.362;-6.288;2022-08-26T01:52:47;2.60;;;1.25;;
42586;SDS011;28216;53.362;-6.288;2022-08-26T01:55:14;4.85;;;1.50;;
42586;SDS011;28216;53.362;-6.288;2022-08-26T01:57:43;3.38;;;1.48;;
42586;SDS011;28216;53.362;-6.288;2022-08-26T02:00:12;2.58;;;1.40;;
42586;SDS011;28216;53.362;-6.288;2022-08-26T02:02:42;2.88;;;1.30;;
42586;SDS011;28216;53.362;-6.288;2022-08-26T02:05:13;5.78;;;1.30;;
42586;SDS011;28216;53.362;-6.288;2022-08-26T02:07:41;6.00;;;1.50;;
42586;SDS011;28216;53.362;-6.288;2022-08-26T02:10:09;4.03;;;1.48;;
42586;SDS011;28216;53.362;-6.288;2022-08-26T02:12:35;6.43;;;1.50;;
42586;SDS011;28216;53.362;-6.288;2022-08-26T02:15:03;5.32;;;1.60;;
42586;SDS011;28216;53.362;-6.288;2022-08-26T02:17:36;4.15;;;1.55;;
42586;SDS011;28216;53.362;-6.288;2022-08-26T02:20:07;3.85;;;1.40;;
42586;SDS011;28216;53.362;-6.288;2022-08-26T02:22:34;3.70;;;1.60;;
42586;SDS011;28216;53.362;-6.288;2022-08-26T02:25:05;3.97;;;1.88;;
42586;SDS011;28216;53.362;-6.288;2022-08-26T02:27:50;8.00;;;1.60;;
42586;SDS011;28216;53.362;-6.288;2022-08-26T02:30:21;2.47;;;1.45;;
42586;SDS011;28216;53.362;-6.288;2022-08-26T02:32:49;3.67;;;1.55;;
42586;SDS011;28216;53.362;-6.288;2022-08-26T02:35:16;5.15;;;1.75;;
42586;SDS011;28216;53.362;-6.288;2022-08-26T02:37:42;3.67;;;1.60;;
42586;SDS011;28216;53.362;-6.288;2022-08-26T02:40:09;6.20;;;1.90;;
42586;SDS011;28216;53.362;-6.288;2022-08-26T02:42:36;4.15;;;1.70;;
42586;SDS011;28216;53.362;-6.288;2022-08-26T02:45:02;5.88;;;1.73;;
42586;SDS011;28216;53.362;-6.288;2022-08-26T02:47:30;4.00;;;1.40;;
42586;SDS011;28216;53.362;-6.288;2022-08-26T02:49:57;4.00;;;1.90;;
42586;SDS011;28216;53.362;-6.288;2022-08-26T02:52:23;4.18;;;1.58;;
42586;SDS011;28216;53.362;-6.288;2022-08-26T02:54:49;2.75;;;1.63;;
42586;SDS011;28216;53.362;-6.288;2022-08-26T02:57:15;2.85;;;1.48;;
42586;SDS011;28216;53.362;-6.288;2022-08-26T02:59:41;5.50;;;1.75;;
42586;SDS011;28216;53.362;-6.288;2022-08-26T03:02:06;4.00;;;1.80;;
42586;SDS011;28216;53.362;-6.288;2022-08-26T03:04:34;3.38;;;1.80;;
42586;SDS011;28216;53.362;-6.288;2022-08-26T03:07:00;3.40;;;1.90;;
42586;SDS011;28216;53.362;-6.288;2022-08-26T03:09:25;4.15;;;1.90;;
42586;SDS011;28216;53.362;-6.288;2022-08-26T03:11:51;4.43;;;1.98;;
42586;SDS011;28216;53.362;-6.288;2022-08-26T03:14:16;4.50;;;2.10;;
42586;SDS011;28216;53.362;-6.288;2022-08-26T03:16:42;4.95;;;2.00;;
42586;SDS011;28216;53.362;-6.288;2022-08-26T03:19:08;4.68;;;1.90;;
42586;SDS011;28216;53.362;-6.288;2022-08-26T03:21:34;4.15;;;1.63;;
42586;SDS011;28216;53.362;-6.288;2022-08-26T03:24:01;6.07;;;2.25;;
42586;SDS011;28216;53.362;-6.288;2022-08-26T03:26:27;2.35;;;1.98;;
42586;SDS011;28216;53.362;-6.288;2022-08-26T03:28:54;5.13;;;2.00;;
42586;SDS011;28216;53.362;-6.288;2022-08-26T03:31:39;2.53;;;1.45;;
42586;SDS011;28216;53.362;-6.288;2022-08-26T03:34:04;6.25;;;1.98;;
42586;SDS011;28216;53.362;-6.288;2022-08-26T03:36:30;2.05;;;1.50;;
42586;SDS011;28216;53.362;-6.288;2022-08-26T03:38:55;1.70;;;1.50;;
42586;SDS011;28216;53.362;-6.288;2022-08-26T03:41:21;3.78;;;1.52;;
42586;SDS011;28216;53.362;-6.288;2022-08-26T03:43:47;2.95;;;1.50;;
42586;SDS011;28216;53.362;-6.288;2022-08-26T03:46:15;4.65;;;1.55;;
42586;SDS011;28216;53.362;-6.288;2022-08-26T03:48:42;2.58;;;1.40;;
42586;SDS011;28216;53.362;-6.288;2022-08-26T03:51:17;3.13;;;1.20;;
42586;SDS011;28216;53.362;-6.288;2022-08-26T03:53:43;4.63;;;1.48;;
42586;SDS011;28216;53.362;-6.288;2022-08-26T03:56:09;1.38;;;1.20;;
42586;SDS011;28216;53.362;-6.288;2022-08-26T03:58:35;3.17;;;1.20;;
42586;SDS011;28216;53.362;-6.288;2022-08-26T04:01:01;3.70;;;1.20;;
42586;SDS011;28216;53.362;-6.288;2022-08-26T04:03:28;1.20;;;0.90;;
42586;SDS011;28216;53.362;-6.288;2022-08-26T04:06:12;2.20;;;1.00;;
42586;SDS011;28216;53.362;-6.288;2022-08-26T04:08:37;3.10;;;0.80;;
42586;SDS011;28216;53.362;-6.288;2022-08-26T04:11:03;1.55;;;0.80;;
42586;SDS011;28216;53.362;-6.288;2022-08-26T04:13:29;1.95;;;0.90;;
42586;SDS011;28216;53.362;-6.288;2022-08-26T04:15:54;1.83;;;0.88;;
42586;SDS011;28216;53.362;-6.288;2022-08-26T04:18:21;1.15;;;0.90;;
42586;SDS011;28216;53.362;-6.288;2022-08-26T04:20:47;1.73;;;0.88;;
42586;SDS011;28216;53.362;-6.288;2022-08-26T04:23:13;1.58;;;1.15;;
42586;SDS011;28216;53.362;-6.288;2022-08-26T04:25:39;1.13;;;0.90;;
42586;SDS011;28216;53.362;-6.288;2022-08-26T04:28:04;1.27;;;1.20;;
42586;SDS011;28216;53.362;-6.288;2022-08-26T04:30:30;1.10;;;1.10;;
42586;SDS011;28216;53.362;-6.288;2022-08-26T04:32:56;2.03;;;1.00;;
42586;SDS011;28216;53.362;-6.288;2022-08-26T04:35:22;1.40;;;1.30;;
42586;SDS011;28216;53.362;-6.288;2022-08-26T04:37:49;2.22;;;1.70;;
42586;SDS011;28216;53.362;-6.288;2022-08-26T04:40:15;2.75;;;1.90;;
42586;SDS011;28216;53.362;-6.288;2022-08-26T04:42:40;2.60;;;2.20;;
42586;SDS011;28216;53.362;-6.288;2022-08-26T04:45:06;3.78;;;1.98;;
42586;SDS011;28216;53.362;-6.288;2022-08-26T04:47:32;2.33;;;1.60;;
42586;SDS011;28216;53.362;-6.288;2022-08-26T04:49:58;2.65;;;1.67;;
42586;SDS011;28216;53.362;-6.288;2022-08-26T04:52:24;4.30;;;1.80;;
42586;SDS011;28216;53.362;-6.288;2022-08-26T04:54:50;1.83;;;1.30;;
42586;SDS011;28216;53.362;-6.288;2022-08-26T04:57:16;2.78;;;1.33;;
42586;SDS011;28216;53.362;-6.288;2022-08-26T04:59:42;1.60;;;1.20;;
42586;SDS011;28216;53.362;-6.288;2022-08-26T05:02:07;1.92;;;1.30;;
42586;SDS011;28216;53.362;-6.288;2022-08-26T05:04:33;2.00;;;1.13;;
42586;SDS011;28216;53.362;-6.288;2022-08-26T05:06:58;1.85;;;1.13;;
42586;SDS011;28216;53.362;-6.288;2022-08-26T05:09:24;3.28;;;1.25;;
42586;SDS011;28216;53.362;-6.288;2022-08-26T05:11:49;2.65;;;1.33;;
42586;SDS011;28216;53.362;-6.288;2022-08-26T05:14:15;1.75;;;1.30;;
42586;SDS011;28216;53.362;-6.288;2022-08-26T05:16:42;1.70;;;1.30;;
42586;SDS011;28216;53.362;-6.288;2022-08-26T05:19:08;2.50;;;1.30;;
42586;SDS011;28216;53.362;-6.288;2022-08-26T05:21:33;2.03;;;1.27;;
42586;SDS011;28216;53.362;-6.288;2022-08-26T05:23:59;2.33;;;1.40;;
42586;SDS011;28216;53.362;-6.288;2022-08-26T05:26:26;2.65;;;1.58;;
42586;SDS011;28216;53.362;-6.288;2022-08-26T05:28:54;2.00;;;1.50;;
42586;SDS011;28216;53.362;-6.288;2022-08-26T05:31:25;1.65;;;1.55;;
42586;SDS011;28216;53.362;-6.288;2022-08-26T05:33:53;3.60;;;1.65;;
42586;SDS011;28216;53.362;-6.288;2022-08-26T05:36:21;1.58;;;1.40;;
42586;SDS011;28216;53.362;-6.288;2022-08-26T05:38:48;2.65;;;1.45;;
42586;SDS011;28216;53.362;-6.288;2022-08-26T05:43:42;1.80;;;1.70;;
42586;SDS011;28216;53.362;-6.288;2022-08-26T05:46:08;2.78;;;1.70;;
42586;SDS011;28216;53.362;-6.288;2022-08-26T05:48:34;1.80;;;1.55;;
42586;SDS011;28216;53.362;-6.288;2022-08-26T05:51:01;1.55;;;1.45;;
42586;SDS011;28216;53.362;-6.288;2022-08-26T05:53:28;1.52;;;1.40;;
42586;SDS011;28216;53.362;-6.288;2022-08-26T05:55:54;1.50;;;1.35;;
42586;SDS011;28216;53.362;-6.288;2022-08-26T05:58:20;1.48;;;1.38;;
42586;SDS011;28216;53.362;-6.288;2022-08-26T06:03:23;1.98;;;1.40;;
42586;SDS011;28216;53.362;-6.288;2022-08-26T06:05:48;1.25;;;1.10;;
42586;SDS011;28216;53.362;-6.288;2022-08-26T06:08:13;1.40;;;1.30;;
42586;SDS011;28216;53.362;-6.288;2022-08-26T06:10:50;1.40;;;1.30;;
42586;SDS011;28216;53.362;-6.288;2022-08-26T06:13:21;2.10;;;1.30;;
42586;SDS011;28216;53.362;-6.288;2022-08-26T06:15:50;1.30;;;1.20;;
42586;SDS011;28216;53.362;-6.288;2022-08-26T06:18:17;2.40;;;1.20;;
42586;SDS011;28216;53.362;-6.288;2022-08-26T06:20:45;1.20;;;1.10;;
42586;SDS011;28216;53.362;-6.288;2022-08-26T06:23:12;1.70;;;1.35;;
42586;SDS011;28216;53.362;-6.288;2022-08-26T06:25:58;1.30;;;1.20;;
42586;SDS011;28216;53.362;-6.288;2022-08-26T06:28:25;1.80;;;1.20;;
42586;SDS011;28216;53.362;-6.288;2022-08-26T06:30:51;1.73;;;1.05;;
42586;SDS011;28216;53.362;-6.288;2022-08-26T06:33:19;1.20;;;1.00;;
42586;SDS011;28216;53.362;-6.288;2022-08-26T06:35:45;1.25;;;1.10;;
42586;SDS011;28216;53.362;-6.288;2022-08-26T06:38:12;1.55;;;1.10;;
42586;SDS011;28216;53.362;-6.288;2022-08-26T06:40:45;1.10;;;1.00;;
42586;SDS011;28216;53.362;-6.288;2022-08-26T06:43:16;1.25;;;1.00;;
42586;SDS011;28216;53.362;-6.288;2022-08-26T06:45:48;3.47;;;0.90;;
42586;SDS011;28216;53.362;-6.288;2022-08-26T06:48:15;1.23;;;1.10;;
42586;SDS011;28216;53.362;-6.288;2022-08-26T06:50:42;0.70;;;0.68;;
42586;SDS011;28216;53.362;-6.288;2022-08-26T06:53:08;1.10;;;0.90;;
42586;SDS011;28216;53.362;-6.288;2022-08-26T06:55:38;1.25;;;0.90;;
42586;SDS011;28216;53.362;-6.288;2022-08-26T06:58:05;0.70;;;0.70;;
42586;SDS011;28216;53.362;-6.288;2022-08-26T07:00:32;1.15;;;0.80;;
42586;SDS011;28216;53.362;-6.288;2022-08-26T07:02:57;1.25;;;0.90;;
42586;SDS011;28216;53.362;-6.288;2022-08-26T07:05:23;1.40;;;0.90;;
42586;SDS011;28216;53.362;-6.288;2022-08-26T07:07:50;1.88;;;1.00;;
42586;SDS011;28216;53.362;-6.288;2022-08-26T07:10:16;1.50;;;1.10;;
42586;SDS011;28216;53.362;-6.288;2022-08-26T07:12:42;1.33;;;0.90;;
42586;SDS011;28216;53.362;-6.288;2022-08-26T07:15:08;0.80;;;0.80;;
42586;SDS011;28216;53.362;-6.288;2022-08-26T07:17:34;1.10;;;1.00;;
42586;SDS011;28216;53.362;-6.288;2022-08-26T07:19:59;2.05;;;1.05;;
42586;SDS011;28216;53.362;-6.288;2022-08-26T07:22:27;3.88;;;1.17;;
42586;SDS011;28216;53.362;-6.288;2022-08-26T07:24:52;1.10;;;1.10;;
42586;SDS011;28216;53.362;-6.288;2022-08-26T07:27:18;1.20;;;1.00;;
42586;SDS011;28216;53.362;-6.288;2022-08-26T07:29:44;0.90;;;0.90;;
42586;SDS011;28216;53.362;-6.288;2022-08-26T07:32:10;1.42;;;1.10;;
42586;SDS011;28216;53.362;-6.288;2022-08-26T07:34:38;2.03;;;1.00;;
42586;SDS011;28216;53.362;-6.288;2022-08-26T07:37:04;1.02;;;0.93;;
42586;SDS011;28216;53.362;-6.288;2022-08-26T07:39:30;1.38;;;0.82;;
42586;SDS011;28216;53.362;-6.288;2022-08-26T07:41:56;1.83;;;0.90;;
42586;SDS011;28216;53.362;-6.288;2022-08-26T07:44:21;3.20;;;0.82;;
42586;SDS011;28216;53.362;-6.288;2022-08-26T07:46:48;1.83;;;0.95;;
42586;SDS011;28216;53.362;-6.288;2022-08-26T07:52:35;1.05;;;0.95;;
42586;SDS011;28216;53.362;-6.288;2022-08-26T07:55:03;2.42;;;0.95;;
42586;SDS011;28216;53.362;-6.288;2022-08-26T07:57:29;0.98;;;0.88;;
42586;SDS011;28216;53.362;-6.288;2022-08-26T07:59:55;1.60;;;1.00;;
42586;SDS011;28216;53.362;-6.288;2022-08-26T08:02:21;0.98;;;0.88;;
42586;SDS011;28216;53.362;-6.288;2022-08-26T08:04:47;0.93;;;0.90;;
42586;SDS011;28216;53.362;-6.288;2022-08-26T08:07:13;2.00;;;1.10;;
42586;SDS011;28216;53.362;-6.288;2022-08-26T08:09:38;0.90;;;0.90;;
42586;SDS011;28216;53.362;-6.288;2022-08-26T08:12:04;1.10;;;1.00;;
42586;SDS011;28216;53.362;-6.288;2022-08-26T08:14:30;1.17;;;0.90;;
42586;SDS011;28216;53.362;-6.288;2022-08-26T08:16:55;1.95;;;1.00;;
42586;SDS011;28216;53.362;-6.288;2022-08-26T08:19:21;1.15;;;1.00;;
42586;SDS011;28216;53.362;-6.288;2022-08-26T08:21:48;1.35;;;1.00;;
42586;SDS011;28216;53.362;-6.288;2022-08-26T08:24:13;5.47;;;0.90;;
42586;SDS011;28216;53.362;-6.288;2022-08-26T08:26:39;1.20;;;1.10;;
42586;SDS011;28216;53.362;-6.288;2022-08-26T08:29:05;2.40;;;1.00;;
42586;SDS011;28216;53.362;-6.288;2022-08-26T08:31:33;3.20;;;1.00;;
42586;SDS011;28216;53.362;-6.288;2022-08-26T08:33:59;1.08;;;0.98;;
42586;SDS011;28216;53.362;-6.288;2022-08-26T08:36:25;0.98;;;0.98;;
42586;SDS011;28216;53.362;-6.288;2022-08-26T08:38:50;3.47;;;1.10;;
42586;SDS011;28216;53.362;-6.288;2022-08-26T08:41:19;2.72;;;1.10;;
42586;SDS011;28216;53.362;-6.288;2022-08-26T08:43:55;1.92;;;0.85;;
42586;SDS011;28216;53.362;-6.288;2022-08-26T08:46:24;1.83;;;1.05;;
42586;SDS011;28216;53.362;-6.288;2022-08-26T08:48:53;1.73;;;1.05;;
42586;SDS011;28216;53.362;-6.288;2022-08-26T08:51:40;1.40;;;1.30;;
42586;SDS011;28216;53.362;-6.288;2022-08-26T08:54:13;1.55;;;1.10;;
42586;SDS011;28216;53.362;-6.288;2022-08-26T08:59:24;1.40;;;1.30;;
42586;SDS011;28216;53.362;-6.288;2022-08-26T09:10:38;3.10;;;1.10;;
42586;SDS011;28216;53.362;-6.288;2022-08-26T09:13:08;2.65;;;1.00;;
42586;SDS011;28216;53.362;-6.288;2022-08-26T09:21:35;1.45;;;1.15;;
42586;SDS011;28216;53.362;-6.288;2022-08-26T09:24:01;2.17;;;1.23;;
42586;SDS011;28216;53.362;-6.288;2022-08-26T09:26:45;3.10;;;1.10;;
42586;SDS011;28216;53.362;-6.288;2022-08-26T09:29:21;1.77;;;0.93;;
42586;SDS011;28216;53.362;-6.288;2022-08-26T09:31:49;1.98;;;1.00;;
42586;SDS011;28216;53.362;-6.288;2022-08-26T09:39:30;2.35;;;1.20;;
42586;SDS011;28216;53.362;-6.288;2022-08-26T09:44:51;1.17;;;0.85;;
42586;SDS011;28216;53.362;-6.288;2022-08-26T09:47:28;1.40;;;0.90;;
42586;SDS011;28216;53.362;-6.288;2022-08-26T09:49:58;2.25;;;0.80;;
42586;SDS011;28216;53.362;-6.288;2022-08-26T09:52:29;1.50;;;0.90;;
42586;SDS011;28216;53.362;-6.288;2022-08-26T09:57:33;1.20;;;1.00;;
42586;SDS011;28216;53.362;-6.288;2022-08-26T10:00:24;1.65;;;1.00;;
42586;SDS011;28216;53.362;-6.288;2022-08-26T10:02:54;2.85;;;0.90;;
42586;SDS011;28216;53.362;-6.288;2022-08-26T10:05:27;0.73;;;0.70;;
42586;SDS011;28216;53.362;-6.288;2022-08-26T10:08:21;1.90;;;0.73;;
42586;SDS011;28216;53.362;-6.288;2022-08-26T10:10:47;0.80;;;0.80;;
42586;SDS011;28216;53.362;-6.288;2022-08-26T10:13:16;1.00;;;1.00;;
42586;SDS011;28216;53.362;-6.288;2022-08-26T10:15:54;1.00;;;0.85;;
42586;SDS011;28216;53.362;-6.288;2022-08-26T10:18:22;1.23;;;0.70;;
42586;SDS011;28216;53.362;-6.288;2022-08-26T10:20:55;1.23;;;1.00;;
42586;SDS011;28216;53.362;-6.288;2022-08-26T10:23:27;2.13;;;1.00;;
42586;SDS011;28216;53.362;-6.288;2022-08-26T10:25:57;1.17;;;0.90;;
42586;SDS011;28216;53.362;-6.288;2022-08-26T10:33:50;0.88;;;0.88;;
42586;SDS011;28216;53.362;-6.288;2022-08-26T10:36:17;1.08;;;0.98;;
42586;SDS011;28216;53.362;-6.288;2022-08-26T10:39:04;1.02;;;1.00;;
42586;SDS011;28216;53.362;-6.288;2022-08-26T10:41:36;0.95;;;0.88;;
42586;SDS011;28216;53.362;-6.288;2022-08-26T10:44:05;1.42;;;0.82;;
42586;SDS011;28216;53.362;-6.288;2022-08-26T10:46:39;1.73;;;0.98;;
42586;SDS011;28216;53.362;-6.288;2022-08-26T10:49:13;1.70;;;1.00;;
42586;SDS011;28216;53.362;-6.288;2022-08-26T10:57:01;1.00;;;1.00;;
42586;SDS011;28216;53.362;-6.288;2022-08-26T10:59:47;2.92;;;1.33;;
42586;SDS011;28216;53.362;-6.288;2022-08-26T11:02:36;1.65;;;1.00;;
42586;SDS011;28216;53.362;-6.288;2022-08-26T11:05:14;1.10;;;1.00;;
42586;SDS011;28216;53.362;-6.288;2022-08-26T11:07:43;1.63;;;1.20;;
42586;SDS011;28216;53.362;-6.288;2022-08-26T11:22:47;1.10;;;1.00;;
42586;SDS011;28216;53.362;-6.288;2022-08-26T11:25:14;1.45;;;0.90;;
42586;SDS011;28216;53.362;-6.288;2022-08-26T11:30:07;0.80;;;0.80;;
42586;SDS011;28216;53.362;-6.288;2022-08-26T11:32:54;1.45;;;1.00;;
42586;SDS011;28216;53.362;-6.288;2022-08-26T11:37:58;2.67;;;0.90;;
42586;SDS011;28216;53.362;-6.288;2022-08-26T11:40:39;0.82;;;0.82;;
42586;SDS011;28216;53.362;-6.288;2022-08-26T11:43:19;0.82;;;0.82;;
42586;SDS011;28216;53.362;-6.288;2022-08-26T11:45:52;1.63;;;1.05;;
42586;SDS011;28216;53.362;-6.288;2022-08-26T11:48:33;1.07;;;0.93;;
42586;SDS011;28216;53.362;-6.288;2022-08-26T11:51:05;0.93;;;0.82;;
42586;SDS011;28216;53.362;-6.288;2022-08-26T11:53:44;1.00;;;1.00;;
42586;SDS011;28216;53.362;-6.288;2022-08-26T11:56:21;2.13;;;0.90;;
42586;SDS011;28216;53.362;-6.288;2022-08-26T11:58:53;1.00;;;1.00;;
42586;SDS011;28216;53.362;-6.288;2022-08-26T12:01:28;2.03;;;1.15;;
42586;SDS011;28216;53.362;-6.288;2022-08-26T12:03:56;1.25;;;1.10;;
42586;SDS011;28216;53.362;-6.288;2022-08-26T12:06:30;1.48;;;0.95;;
42586;SDS011;28216;53.362;-6.288;2022-08-26T12:09:00;1.00;;;0.90;;
42586;SDS011;28216;53.362;-6.288;2022-08-26T12:11:35;1.20;;;1.10;;
42586;SDS011;28216;53.362;-6.288;2022-08-26T12:14:04;1.77;;;1.20;;
42586;SDS011;28216;53.362;-6.288;2022-08-26T12:16:40;1.08;;;1.00;;
42586;SDS011;28216;53.362;-6.288;2022-08-26T12:24:53;1.20;;;1.10;;
42586;SDS011;28216;53.362;-6.288;2022-08-26T12:32:35;1.15;;;1.05;;
42586;SDS011;28216;53.362;-6.288;2022-08-26T12:35:05;1.20;;;1.10;;
42586;SDS011;28216;53.362;-6.288;2022-08-26T12:37:33;0.93;;;0.93;;
42586;SDS011;28216;53.362;-6.288;2022-08-26T12:43:08;1.52;;;1.02;;
42586;SDS011;28216;53.362;-6.288;2022-08-26T12:45:36;1.45;;;1.20;;
42586;SDS011;28216;53.362;-6.288;2022-08-26T12:48:09;1.48;;;1.20;;
42586;SDS011;28216;53.362;-6.288;2022-08-26T12:50:47;1.20;;;1.10;;
42586;SDS011;28216;53.362;-6.288;2022-08-26T12:53:20;3.92;;;1.20;;
42586;SDS011;28216;53.362;-6.288;2022-08-26T12:55:59;4.28;;;1.20;;
42586;SDS011;28216;53.362;-6.288;2022-08-26T12:58:35;2.17;;;1.00;;
42586;SDS011;28216;53.362;-6.288;2022-08-26T13:06:09;1.55;;;0.95;;
42586;SDS011;28216;53.362;-6.288;2022-08-26T13:08:40;1.65;;;1.10;;
42586;SDS011;28216;53.362;-6.288;2022-08-26T13:13:48;1.00;;;0.93;;
42586;SDS011;28216;53.362;-6.288;2022-08-26T13:16:15;2.15;;;1.05;;
42586;SDS011;28216;53.362;-6.288;2022-08-26T13:18:43;1.90;;;1.38;;
42586;SDS011;28216;53.362;-6.288;2022-08-26T13:21:15;3.85;;;1.38;;
42586;SDS011;28216;53.362;-6.288;2022-08-26T13:23:43;2.13;;;1.17;;
42586;SDS011;28216;53.362;-6.288;2022-08-26T13:26:09;1.33;;;1.20;;
42586;SDS011;28216;53.362;-6.288;2022-08-26T13:28:35;4.57;;;1.10;;
42586;SDS011;28216;53.362;-6.288;2022-08-26T13:31:00;1.98;;;1.20;;
42586;SDS011;28216;53.362;-6.288;2022-08-26T13:33:27;1.10;;;1.10;;
42586;SDS011;28216;53.362;-6.288;2022-08-26T13:35:52;0.98;;;0.80;;
42586;SDS011;28216;53.362;-6.288;2022-08-26T13:38:18;2.38;;;1.00;;
42586;SDS011;28216;53.362;-6.288;2022-08-26T13:40:44;2.30;;;0.82;;
42586;SDS011;28216;53.362;-6.288;2022-08-26T13:43:11;3.92;;;0.80;;
42586;SDS011;28216;53.362;-6.288;2022-08-26T13:45:37;4.57;;;0.95;;
42586;SDS011;28216;53.362;-6.288;2022-08-26T13:48:03;2.80;;;0.80;;
42586;SDS011;28216;53.362;-6.288;2022-08-26T13:50:30;0.65;;;0.65;;
42586;SDS011;28216;53.362;-6.288;2022-08-26T13:52:56;4.30;;;0.90;;
42586;SDS011;28216;53.362;-6.288;2022-08-26T13:55:22;3.70;;;0.98;;
42586;SDS011;28216;53.362;-6.288;2022-08-26T13:57:47;1.77;;;0.90;;
42586;SDS011;28216;53.362;-6.288;2022-08-26T14:00:13;2.15;;;0.73;;
42586;SDS011;28216;53.362;-6.288;2022-08-26T14:02:39;2.30;;;0.98;;
42586;SDS011;28216;53.362;-6.288;2022-08-26T14:05:05;2.13;;;1.13;;
42586;SDS011;28216;53.362;-6.288;2022-08-26T14:07:31;0.95;;;0.80;;
42586;SDS011;28216;53.362;-6.288;2022-08-26T14:09:56;1.60;;;1.00;;
42586;SDS011;28216;53.362;-6.288;2022-08-26T14:12:22;1.75;;;1.20;;
42586;SDS011;28216;53.362;-6.288;2022-08-26T14:14:47;1.67;;;1.00;;
42586;SDS011;28216;53.362;-6.288;2022-08-26T14:17:15;3.53;;;1.00;;
42586;SDS011;28216;53.362;-6.288;2022-08-26T14:19:46;2.63;;;1.00;;
42586;SDS011;28216;53.362;-6.288;2022-08-26T14:22:17;0.95;;;0.90;;
42586;SDS011;28216;53.362;-6.288;2022-08-26T14:24:45;4.10;;;0.88;;
42586;SDS011;28216;53.362;-6.288;2022-08-26T14:27:11;1.75;;;0.75;;
42586;SDS011;28216;53.362;-6.288;2022-08-26T14:29:36;2.28;;;1.00;;
42586;SDS011;28216;53.362;-6.288;2022-08-26T14:32:04;1.48;;;0.98;;
42586;SDS011;28216;53.362;-6.288;2022-08-26T14:34:38;1.13;;;0.95;;
42586;SDS011;28216;53.362;-6.288;2022-08-26T14:37:05;3.08;;;1.00;;
42586;SDS011;28216;53.362;-6.288;2022-08-26T14:39:31;2.03;;;1.20;;
42586;SDS011;28216;53.362;-6.288;2022-08-26T14:41:57;2.55;;;0.90;;
42586;SDS011;28216;53.362;-6.288;2022-08-26T14:44:24;3.53;;;1.13;;
42586;SDS011;28216;53.362;-6.288;2022-08-26T14:46:52;2.92;;;1.00;;
42586;SDS011;28216;53.362;-6.288;2022-08-26T14:49:19;3.58;;;1.27;;
42586;SDS011;28216;53.362;-6.288;2022-08-26T14:51:45;2.42;;;1.55;;
42586;SDS011;28216;53.362;-6.288;2022-08-26T14:54:11;1.60;;;1.17;;
42586;SDS011;28216;53.362;-6.288;2022-08-26T14:56:48;2.55;;;1.00;;
42586;SDS011;28216;53.362;-6.288;2022-08-26T14:59:23;3.10;;;1.05;;
42586;SDS011;28216;53.362;-6.288;2022-08-26T15:01:50;2.65;;;1.10;;
42586;SDS011;28216;53.362;-6.288;2022-08-26T15:04:17;4.25;;;1.20;;
42586;SDS011;28216;53.362;-6.288;2022-08-26T15:06:43;4.07;;;1.05;;
42586;SDS011;28216;53.362;-6.288;2022-08-26T15:09:09;4.32;;;1.20;;
42586;SDS011;28216;53.362;-6.288;2022-08-26T15:11:35;3.97;;;1.30;;
42586;SDS011;28216;53.362;-6.288;2022-08-26T15:14:00;3.70;;;1.35;;
42586;SDS011;28216;53.362;-6.288;2022-08-26T15:16:26;3.50;;;1.08;;
42586;SDS011;28216;53.362;-6.288;2022-08-26T15:18:53;3.45;;;1.10;;
42586;SDS011;28216;53.362;-6.288;2022-08-26T15:21:19;2.70;;;1.15;;
42586;SDS011;28216;53.362;-6.288;2022-08-26T15:23:46;3.30;;;1.00;;
42586;SDS011;28216;53.362;-6.288;2022-08-26T15:26:13;5.10;;;1.10;;
42586;SDS011;28216;53.362;-6.288;2022-08-26T15:28:39;1.58;;;1.10;;
42586;SDS011;28216;53.362;-6.288;2022-08-26T15:31:05;1.35;;;1.08;;
42586;SDS011;28216;53.362;-6.288;2022-08-26T15:33:32;2.83;;;1.42;;
42586;SDS011;28216;53.362;-6.288;2022-08-26T15:35:59;3.22;;;1.35;;
42586;SDS011;28216;53.362;-6.288;2022-08-26T15:38:32;5.03;;;1.40;;
42586;SDS011;28216;53.362;-6.288;2022-08-26T15:41:00;3.50;;;1.17;;
42586;SDS011;28216;53.362;-6.288;2022-08-26T15:43:26;2.15;;;1.10;;
42586;SDS011;28216;53.362;-6.288;2022-08-26T15:45:52;3.00;;;1.42;;
42586;SDS011;28216;53.362;-6.288;2022-08-26T15:48:18;1.75;;;1.00;;
42586;SDS011;28216;53.362;-6.288;2022-08-26T15:50:49;2.45;;;1.00;;
42586;SDS011;28216;53.362;-6.288;2022-08-26T15:53:17;2.67;;;1.10;;
42586;SDS011;28216;53.362;-6.288;2022-08-26T15:55:47;2.50;;;1.15;;
42586;SDS011;28216;53.362;-6.288;2022-08-26T15:58:13;2.40;;;1.20;;
42586;SDS011;28216;53.362;-6.288;2022-08-26T16:00:39;6.35;;;1.30;;
42586;SDS011;28216;53.362;-6.288;2022-08-26T16:03:05;3.65;;;1.70;;
42586;SDS011;28216;53.362;-6.288;2022-08-26T16:05:41;2.28;;;1.23;;
42586;SDS011;28216;53.362;-6.288;2022-08-26T16:08:10;2.85;;;1.30;;